createdAt,value
2019-01-04T00:01:42.609Z,100262.00
2019-01-04T00:04:16.918Z,100260.00
2019-01-04T00:06:45.691Z,100260.00
2019-01-04T00:09:14.509Z,100262.00
2019-01-04T00:11:43.294Z,100253.00
2019-01-04T00:14:12.017Z,100256.00
2019-01-04T00:16:40.744Z,100254.00
2019-01-04T00:19:09.473Z,100258.00
2019-01-04T00:21:38.440Z,100256.00
2019-01-04T00:24:07.195Z,100255.00
2019-01-04T00:26:35.901Z,100249.00
2019-01-04T00:29:04.635Z,100254.00
2019-01-04T00:31:33.361Z,100248.00
2019-01-04T00:34:02.110Z,100251.00
2019-01-04T00:36:30.833Z,100254.00
2019-01-04T00:38:59.639Z,100245.00
2019-01-04T00:41:28.359Z,100241.00
2019-01-04T00:43:57.115Z,100234.00
2019-01-04T00:46:26.101Z,100231.00
2019-01-04T00:48:55.115Z,100232.00
2019-01-04T00:51:23.834Z,100235.00
2019-01-04T00:53:52.546Z,100233.00
2019-01-04T00:56:47.684Z,100239.00
2019-01-04T00:59:45.830Z,100242.00
2019-01-04T01:02:32.113Z,100248.00
2019-01-04T01:05:33.366Z,100236.00
2019-01-04T01:08:49.777Z,100231.00
2019-01-04T01:11:55.734Z,100222.00
2019-01-04T01:15:09.021Z,100249.00
2019-01-04T01:18:15.105Z,100245.00
2019-01-04T01:21:24.519Z,100249.00
2019-01-04T01:24:49.446Z,100244.00
2019-01-04T01:27:54.634Z,100245.00
2019-01-04T01:30:59.255Z,100244.00
2019-01-04T01:34:11.052Z,100259.00
2019-01-04T01:37:07.366Z,100261.00
2019-01-04T01:40:27.126Z,100259.00
2019-01-04T01:43:44.602Z,100262.00
2019-01-04T01:46:46.645Z,100269.00
2019-01-04T01:49:55.377Z,100258.00
2019-01-04T01:52:34.878Z,100246.00
2019-01-04T01:55:03.670Z,100256.00
2019-01-04T01:57:32.670Z,100252.00
2019-01-04T02:00:01.430Z,100265.00
2019-01-04T02:02:30.194Z,100273.00
2019-01-04T02:04:58.934Z,100285.00
2019-01-04T02:07:27.682Z,100280.00
2019-01-04T02:09:56.506Z,100281.00
2019-01-04T02:12:25.287Z,100286.00
2019-01-04T02:14:54.289Z,100278.00
2019-01-04T02:17:23.034Z,100278.00
2019-01-04T02:19:51.771Z,100278.00
2019-01-04T02:22:20.501Z,100278.00
2019-01-04T02:24:49.255Z,100265.00
2019-01-04T02:27:17.987Z,100278.00
2019-01-04T02:29:46.715Z,100277.00
2019-01-04T02:32:15.511Z,100281.00
2019-01-04T02:34:44.235Z,100265.00
2019-01-04T02:37:12.995Z,100277.00
2019-01-04T02:39:41.804Z,100257.00
2019-01-04T02:42:10.652Z,100266.00
2019-01-04T02:44:39.398Z,100275.00
2019-01-04T02:47:08.130Z,100263.00
2019-01-04T02:49:36.885Z,100276.00
2019-01-04T02:52:05.652Z,100264.00
2019-01-04T02:54:34.402Z,100270.00
2019-01-04T02:57:03.159Z,100278.00
2019-01-04T02:59:31.908Z,100279.00
2019-01-04T03:02:00.647Z,100278.00
2019-01-04T03:04:29.397Z,100284.00
2019-01-04T03:06:58.168Z,100288.00
2019-01-04T03:09:26.916Z,100279.00
2019-01-04T03:11:55.675Z,100274.00
2019-01-04T03:14:24.443Z,100276.00
2019-01-04T03:16:53.182Z,100287.00
2019-01-04T03:19:21.926Z,100272.00
2019-01-04T03:21:50.691Z,100274.00
2019-01-04T03:24:19.431Z,100263.00
2019-01-04T03:26:48.196Z,100254.00
2019-01-04T03:29:17.027Z,100246.00
2019-01-04T03:31:45.820Z,100257.00
2019-01-04T03:34:14.630Z,100236.00
2019-01-04T03:36:43.395Z,100245.00
2019-01-04T03:39:12.156Z,100241.00
2019-01-04T03:41:40.912Z,100234.00
2019-01-04T03:44:09.667Z,100233.00
2019-01-04T03:46:38.411Z,100243.00
2019-01-04T03:49:07.167Z,100225.00
2019-01-04T03:51:35.946Z,100229.00
2019-01-04T03:54:04.816Z,100217.00
2019-01-04T03:56:33.551Z,100225.00
2019-01-04T03:59:02.288Z,100227.00
2019-01-04T04:01:31.034Z,100229.00
2019-01-04T04:03:59.778Z,100221.00
2019-01-04T04:06:28.530Z,100223.00
2019-01-04T04:08:57.320Z,100232.00
2019-01-04T04:11:26.075Z,100220.00
2019-01-04T04:13:54.827Z,100224.00
2019-01-04T04:16:23.639Z,100228.00
2019-01-04T04:18:52.395Z,100227.00
2019-01-04T04:21:21.442Z,100227.00
2019-01-04T04:23:50.178Z,100229.00
2019-01-04T04:26:18.928Z,100233.00
2019-01-04T04:28:47.663Z,100235.00
2019-01-04T04:31:16.413Z,100243.00
2019-01-04T04:33:45.170Z,100235.00
2019-01-04T04:36:13.915Z,100239.00
2019-01-04T04:38:42.650Z,100245.00
2019-01-04T04:41:11.403Z,100246.00
2019-01-04T04:43:40.145Z,100254.00
2019-01-04T04:46:09.164Z,100248.00
2019-01-04T04:48:37.930Z,100244.00
2019-01-04T04:51:06.700Z,100248.00
2019-01-04T04:53:36.074Z,100247.00
2019-01-04T04:56:04.927Z,100244.00
2019-01-04T04:58:33.661Z,100247.00
2019-01-04T05:01:02.399Z,100238.00
2019-01-04T05:03:31.150Z,100247.00
2019-01-04T05:06:00.156Z,100233.00
2019-01-04T05:08:28.939Z,100230.00
2019-01-04T05:10:57.711Z,100233.00
2019-01-04T05:13:26.442Z,100234.00
2019-01-04T05:15:55.191Z,100231.00
2019-01-04T05:18:23.942Z,100231.00
2019-01-04T05:20:52.734Z,100231.00
2019-01-04T05:23:21.461Z,100227.00
2019-01-04T05:25:50.694Z,100222.00
2019-01-04T05:28:19.437Z,100235.00
2019-01-04T05:30:48.166Z,100235.00
2019-01-04T05:33:16.894Z,100224.00
2019-01-04T05:35:45.630Z,100218.00
2019-01-04T05:38:14.344Z,100221.00
2019-01-04T05:40:43.179Z,100215.00
2019-01-04T05:43:12.007Z,100229.00
2019-01-04T05:45:40.742Z,100228.00
2019-01-04T05:48:09.480Z,100225.00
2019-01-04T05:50:38.216Z,100221.00
2019-01-04T05:53:06.942Z,100214.00
2019-01-04T05:55:35.690Z,100220.00
2019-01-04T05:58:04.414Z,100210.00
2019-01-04T06:00:33.141Z,100219.00
2019-01-04T06:03:02.137Z,100216.00
2019-01-04T06:05:30.859Z,100220.00
2019-01-04T06:07:59.582Z,100223.00
2019-01-04T06:10:28.345Z,100202.00
2019-01-04T06:12:57.129Z,100210.00
2019-01-04T06:15:26.102Z,100210.00
2019-01-04T06:17:55.100Z,100216.00
2019-01-04T06:20:23.839Z,100217.00
2019-01-04T06:22:52.563Z,100222.00
2019-01-04T06:25:21.534Z,100219.00
2019-01-04T06:27:50.253Z,100214.00
2019-01-04T06:30:18.971Z,100213.00
2019-01-04T06:32:47.682Z,100216.00
2019-01-04T06:35:16.446Z,100220.00
2019-01-04T06:37:45.162Z,100215.00
2019-01-04T06:40:13.885Z,100205.00
2019-01-04T06:42:42.617Z,100214.00
2019-01-04T06:45:11.591Z,100213.00
2019-01-04T06:47:41.275Z,100215.00
2019-01-04T06:50:10.017Z,100238.00
2019-01-04T06:52:38.761Z,100233.00
2019-01-04T06:55:55.475Z,100223.00
2019-01-04T06:58:24.226Z,100234.00
2019-01-04T07:00:52.949Z,100228.00
2019-01-04T07:03:21.669Z,100230.00
2019-01-04T07:05:50.763Z,100228.00
2019-01-04T07:08:19.478Z,100227.00
2019-01-04T07:10:48.218Z,100241.00
2019-01-04T07:13:16.947Z,100237.00
2019-01-04T07:15:45.670Z,100241.00
2019-01-04T07:18:14.394Z,100248.00
2019-01-04T07:20:43.124Z,100254.00
2019-01-04T07:23:11.909Z,100257.00
2019-01-04T07:25:40.625Z,100244.00
2019-01-04T07:28:09.478Z,100256.00
2019-01-04T07:30:38.226Z,100257.00
2019-01-04T07:33:07.223Z,100239.00
2019-01-04T07:35:35.980Z,100255.00
2019-01-04T07:38:04.706Z,100231.00
2019-01-04T07:40:33.439Z,100243.00
2019-01-04T07:43:02.162Z,100243.00
2019-01-04T07:45:31.169Z,100230.00
2019-01-04T07:47:59.891Z,100239.00
2019-01-04T07:50:28.631Z,100236.00
2019-01-04T07:52:57.623Z,100250.00
2019-01-04T07:55:26.350Z,100259.00
2019-01-04T07:57:55.121Z,100248.00
2019-01-04T08:00:23.957Z,100256.00
2019-01-04T08:02:57.721Z,100260.00
2019-01-04T08:05:29.742Z,100216.00
2019-01-04T08:07:58.461Z,100249.00
2019-01-04T08:10:27.209Z,100238.00
2019-01-04T08:12:55.953Z,100245.00
2019-01-04T08:15:24.740Z,100233.00
2019-01-04T08:17:53.565Z,100235.00
2019-01-04T08:20:22.331Z,100245.00
2019-01-04T08:22:51.192Z,100248.00
2019-01-04T08:25:19.992Z,100250.00
2019-01-04T08:27:48.714Z,100238.00
2019-01-04T08:30:18.879Z,100250.00
2019-01-04T08:32:47.599Z,100252.00
2019-01-04T08:35:16.442Z,100251.00
2019-01-04T08:37:45.232Z,100254.00
2019-01-04T08:40:14.430Z,100257.00
2019-01-04T08:42:43.282Z,100260.00
2019-01-04T08:45:15.512Z,100248.00
2019-01-04T08:47:44.567Z,100246.00
2019-01-04T08:50:14.355Z,100263.00
2019-01-04T08:52:43.178Z,100252.00
2019-01-04T08:55:31.385Z,100251.00
2019-01-04T08:58:00.095Z,100254.00
2019-01-04T09:00:28.827Z,100250.00
2019-01-04T09:02:57.565Z,100254.00
2019-01-04T09:05:26.311Z,100262.00
2019-01-04T09:07:55.062Z,100266.00
2019-01-04T09:10:23.927Z,100260.00
2019-01-04T09:12:53.071Z,100244.00
2019-01-04T09:15:21.799Z,100246.00
2019-01-04T09:17:50.606Z,100243.00
2019-01-04T09:20:19.648Z,100242.00
2019-01-04T09:22:48.395Z,100250.00
2019-01-04T09:25:17.122Z,100243.00
2019-01-04T09:27:45.909Z,100241.00
2019-01-04T09:30:15.364Z,100226.00
2019-01-04T09:32:44.091Z,100232.00
2019-01-04T09:35:12.836Z,100226.00
2019-01-04T09:37:41.587Z,100220.00
2019-01-04T09:40:11.550Z,100220.00
2019-01-04T09:42:44.985Z,100219.00
2019-01-04T09:45:13.808Z,100218.00
2019-01-04T09:47:42.595Z,100220.00
2019-01-04T09:50:11.474Z,100214.00
2019-01-04T09:52:40.269Z,100219.00
2019-01-04T09:55:09.071Z,100206.00
2019-01-04T09:57:37.809Z,100202.00
2019-01-04T10:00:09.886Z,100208.00
2019-01-04T10:02:38.938Z,100209.00
2019-01-04T10:05:08.292Z,100210.00
2019-01-04T10:07:37.279Z,100215.00
2019-01-04T10:10:07.926Z,100225.00
2019-01-04T10:12:36.682Z,100198.00
2019-01-04T10:15:06.276Z,100199.00
2019-01-04T10:17:34.995Z,100198.00
2019-01-04T10:20:03.990Z,100185.00
2019-01-04T10:22:32.710Z,100188.00
2019-01-04T10:25:01.515Z,100182.00
2019-01-04T10:27:30.550Z,100181.00
2019-01-04T10:29:59.375Z,100183.00
2019-01-04T10:32:28.518Z,100184.00
2019-01-04T10:34:57.266Z,100181.00
2019-01-04T10:37:26.011Z,100178.00
2019-01-04T10:39:54.727Z,100179.00
2019-01-04T10:42:23.463Z,100188.00
2019-01-04T10:44:52.264Z,100199.00
2019-01-04T10:47:21.019Z,100194.00
2019-01-04T10:49:49.742Z,100187.00
2019-01-04T10:52:18.497Z,100174.00
2019-01-04T10:54:47.223Z,100169.00
2019-01-04T10:57:16.103Z,100156.00
2019-01-04T10:59:44.915Z,100143.00
2019-01-04T11:02:13.640Z,100147.00
2019-01-04T11:04:42.362Z,100147.00
2019-01-04T11:07:11.090Z,100148.00
2019-01-04T11:09:39.899Z,100149.00
2019-01-04T11:12:08.718Z,100134.00
2019-01-04T11:14:37.443Z,100118.00
2019-01-04T11:17:06.191Z,100113.00
2019-01-04T11:19:34.915Z,100110.00
2019-01-04T11:22:39.399Z,100090.00
2019-01-04T11:25:43.994Z,100088.00
2019-01-04T11:28:19.374Z,100080.00
2019-01-04T11:31:13.286Z,100090.00
2019-01-04T11:33:57.600Z,100094.00
2019-01-04T11:36:55.049Z,100085.00
2019-01-04T11:39:43.243Z,100089.00
2019-01-04T11:42:57.730Z,100079.00
2019-01-04T11:45:57.743Z,100076.00
2019-01-04T11:48:36.458Z,100081.00
2019-01-04T11:51:11.491Z,100055.00
2019-01-04T11:53:40.354Z,100057.00
2019-01-04T11:56:09.363Z,100055.00
2019-01-04T11:58:38.343Z,100051.00
2019-01-04T12:01:07.544Z,100045.00
2019-01-04T12:03:36.526Z,100035.00
2019-01-04T12:06:05.275Z,100047.00
2019-01-04T12:08:34.290Z,100043.00
2019-01-04T12:11:03.040Z,100027.00
2019-01-04T12:13:31.751Z,100039.00
2019-01-04T12:16:00.486Z,100028.00
2019-01-04T12:18:29.605Z,100012.00
2019-01-04T12:20:58.575Z,99998.00
2019-01-04T12:23:27.341Z,100006.00
2019-01-04T12:25:56.216Z,100008.00
2019-01-04T12:28:24.946Z,100004.00
2019-01-04T12:30:53.796Z,99992.00
2019-01-04T12:33:22.559Z,99990.00
2019-01-04T12:35:51.594Z,99995.00
2019-01-04T12:38:20.578Z,100007.00
2019-01-04T12:40:49.354Z,100005.00
2019-01-04T12:43:18.091Z,99999.00
2019-01-04T12:45:46.837Z,99982.00
2019-01-04T12:48:15.588Z,99981.00
2019-01-04T12:50:44.422Z,99980.00
2019-01-04T12:53:13.149Z,99979.00
2019-01-04T12:55:41.869Z,99967.00
2019-01-04T12:58:10.580Z,99968.00
2019-01-04T13:00:39.306Z,99967.00
2019-01-04T13:03:08.038Z,99965.00
2019-01-04T13:05:36.774Z,99968.00
2019-01-04T13:08:05.506Z,99966.00
2019-01-04T13:10:35.701Z,99963.00
2019-01-04T13:13:04.762Z,99950.00
2019-01-04T13:15:33.491Z,99950.00
2019-01-04T13:18:02.235Z,99954.00
2019-01-04T13:20:31.475Z,99959.00
2019-01-04T13:23:00.337Z,99950.00
2019-01-04T13:25:29.093Z,99950.00
2019-01-04T13:27:58.335Z,99946.00
2019-01-04T13:30:27.307Z,99948.00
2019-01-04T13:32:56.178Z,99930.00
2019-01-04T13:35:24.896Z,99939.00
2019-01-04T13:37:53.621Z,99935.00
2019-01-04T13:40:22.348Z,99930.00
2019-01-04T13:42:53.499Z,99936.00
2019-01-04T13:45:22.239Z,99935.00
2019-01-04T13:47:50.957Z,99943.00
2019-01-04T13:50:19.679Z,99936.00
2019-01-04T13:52:48.579Z,99934.00
2019-01-04T13:55:17.323Z,99943.00
2019-01-04T13:57:46.139Z,99926.00
2019-01-04T14:00:15.154Z,99933.00
2019-01-04T14:02:43.994Z,99924.00
2019-01-04T14:05:15.787Z,99932.00
2019-01-04T14:07:44.760Z,99919.00
2019-01-04T14:10:13.514Z,99908.00
2019-01-04T14:12:42.347Z,99895.00
2019-01-04T14:15:11.064Z,99893.00
2019-01-04T14:17:39.783Z,99903.00
2019-01-04T14:20:08.599Z,99902.00
2019-01-04T14:22:38.531Z,99904.00
2019-01-04T14:25:08.143Z,99888.00
2019-01-04T14:27:37.114Z,99881.00
2019-01-04T14:30:07.618Z,99885.00
2019-01-04T14:32:36.434Z,99882.00
2019-01-04T14:35:05.345Z,99862.00
2019-01-04T14:37:34.109Z,99871.00
2019-01-04T14:40:03.014Z,99863.00
2019-01-04T14:42:31.727Z,99855.00
2019-01-04T14:45:00.462Z,99852.00
2019-01-04T14:47:29.182Z,99862.00
2019-01-04T14:49:57.985Z,99842.00
2019-01-04T14:52:26.715Z,99849.00
2019-01-04T14:54:55.430Z,99836.00
2019-01-04T14:57:24.239Z,99845.00
2019-01-04T14:59:52.967Z,99863.00
2019-01-04T15:02:21.707Z,99856.00
2019-01-04T15:04:50.602Z,99847.00
2019-01-04T15:07:19.334Z,99852.00
2019-01-04T15:09:48.047Z,99856.00
2019-01-04T15:12:16.794Z,99857.00
2019-01-04T15:14:45.539Z,99855.00
2019-01-04T15:17:14.383Z,99866.00
2019-01-04T15:19:43.135Z,99854.00
2019-01-04T15:22:11.928Z,99861.00
2019-01-04T15:24:40.695Z,99870.00
2019-01-04T15:27:09.524Z,99875.00
2019-01-04T15:29:38.399Z,99877.00
2019-01-04T15:32:07.190Z,99869.00
2019-01-04T15:34:35.924Z,99866.00
2019-01-04T15:37:04.738Z,99867.00
2019-01-04T15:39:33.496Z,99870.00
2019-01-04T15:42:02.226Z,99859.00
2019-01-04T15:44:30.978Z,99874.00
2019-01-04T15:46:59.983Z,99888.00
2019-01-04T15:49:28.704Z,99877.00
2019-01-04T15:51:57.456Z,99870.00
2019-01-04T15:54:26.203Z,99870.00
2019-01-04T15:56:54.938Z,99855.00
2019-01-04T15:59:23.677Z,99848.00
2019-01-04T16:01:52.451Z,99837.00
2019-01-04T16:04:21.189Z,99813.00
2019-01-04T16:09:22.878Z,99808.00
2019-01-04T16:11:51.677Z,99805.00
2019-01-04T16:14:20.795Z,99804.00
2019-01-04T16:16:49.521Z,99807.00
2019-01-04T16:19:19.166Z,99806.00
2019-01-04T16:21:48.719Z,99810.00
2019-01-04T16:24:17.553Z,99824.00
2019-01-04T16:26:46.309Z,99812.00
2019-01-04T16:29:15.195Z,99820.00
2019-01-04T16:31:43.922Z,99810.00
2019-01-04T16:34:12.735Z,99803.00
2019-01-04T16:36:41.762Z,99818.00
2019-01-04T16:39:10.641Z,99823.00
2019-01-04T16:41:39.385Z,99834.00
2019-01-04T16:44:08.147Z,99824.00
2019-01-04T16:46:36.861Z,99825.00
2019-01-04T16:49:05.608Z,99825.00
2019-01-04T16:51:34.565Z,99807.00
2019-01-04T16:54:03.366Z,99811.00
2019-01-04T16:56:32.353Z,99807.00
2019-01-04T16:59:01.167Z,99826.00
2019-01-04T17:01:29.959Z,99806.00
2019-01-04T17:03:58.697Z,99803.00
2019-01-04T17:06:27.427Z,99797.00
2019-01-04T17:08:56.150Z,99794.00
2019-01-04T17:11:24.903Z,99771.00
2019-01-04T17:13:53.621Z,99772.00
2019-01-04T17:16:22.374Z,99762.00
2019-01-04T17:18:51.152Z,99759.00
2019-01-04T17:21:19.894Z,99755.00
2019-01-04T17:23:48.666Z,99747.00
2019-01-04T17:26:17.398Z,99764.00
2019-01-04T17:28:46.125Z,99749.00
2019-01-04T17:31:14.897Z,99742.00
2019-01-04T17:33:44.048Z,99740.00
2019-01-04T17:36:12.820Z,99745.00
2019-01-04T17:38:41.575Z,99732.00
2019-01-04T17:41:10.385Z,99744.00
2019-01-04T17:43:39.125Z,99734.00
2019-01-04T17:46:07.865Z,99738.00
2019-01-04T17:48:36.943Z,99734.00
2019-01-04T17:51:05.673Z,99744.00
2019-01-04T17:53:34.442Z,99745.00
2019-01-04T17:56:03.260Z,99730.00
2019-01-04T17:58:31.999Z,99720.00
2019-01-04T18:01:00.788Z,99715.00
2019-01-04T18:03:29.619Z,99717.00
2019-01-04T18:05:58.743Z,99716.00
2019-01-04T18:08:27.500Z,99715.00
2019-01-04T18:10:56.656Z,99716.00
2019-01-04T18:13:25.574Z,99708.00
2019-01-04T18:15:54.351Z,99706.00
2019-01-04T18:18:23.116Z,99707.00
2019-01-04T18:20:51.887Z,99708.00
2019-01-04T18:23:20.732Z,99709.00
2019-01-04T18:25:49.554Z,99718.00
2019-01-04T18:28:18.303Z,99701.00
2019-01-04T18:30:47.369Z,99703.00
2019-01-04T18:33:16.407Z,99724.00
2019-01-04T18:35:45.175Z,99704.00
2019-01-04T18:38:16.538Z,99707.00
2019-01-04T18:40:45.314Z,99699.00
2019-01-04T18:43:14.359Z,99692.00
2019-01-04T18:45:43.096Z,99714.00
2019-01-04T18:48:11.851Z,99711.00
2019-01-04T18:50:40.662Z,99717.00
2019-01-04T18:53:09.752Z,99715.00
2019-01-04T18:55:38.630Z,99713.00
2019-01-04T18:58:07.420Z,99716.00
2019-01-04T19:00:36.263Z,99715.00
2019-01-04T19:03:05.274Z,99717.00
2019-01-04T19:05:34.150Z,99716.00
2019-01-04T19:08:02.904Z,99723.00
2019-01-04T19:10:31.664Z,99725.00
2019-01-04T19:13:00.565Z,99734.00
2019-01-04T19:15:29.299Z,99730.00
2019-01-04T19:17:58.040Z,99733.00
2019-01-04T19:20:26.807Z,99722.00
2019-01-04T19:22:55.669Z,99731.00
2019-01-04T19:25:24.508Z,99735.00
2019-01-04T19:27:53.363Z,99733.00
2019-01-04T19:30:22.238Z,99727.00
2019-01-04T19:32:51.013Z,99719.00
2019-01-04T19:35:19.751Z,99717.00
2019-01-04T19:37:48.495Z,99711.00
2019-01-04T19:40:17.282Z,99720.00
2019-01-04T19:42:46.330Z,99702.00
2019-01-04T19:45:15.161Z,99707.00
2019-01-04T19:47:43.895Z,99713.00
2019-01-04T19:50:20.684Z,99703.00
2019-01-04T19:52:49.747Z,99707.00
2019-01-04T19:55:18.683Z,99714.00
2019-01-04T19:57:47.528Z,99711.00
2019-01-04T20:00:16.283Z,99715.00
2019-01-04T20:02:45.028Z,99714.00
2019-01-04T20:05:13.769Z,99703.00
2019-01-04T20:08:21.436Z,99702.00
2019-01-04T20:11:47.808Z,99710.00
2019-01-04T20:15:14.294Z,99714.00
2019-01-04T20:18:03.774Z,99727.00
2019-01-04T20:20:51.638Z,99721.00
2019-01-04T20:23:48.387Z,99713.00
2019-01-04T20:26:36.263Z,99711.00
2019-01-04T20:29:22.559Z,99708.00
2019-01-04T20:32:03.930Z,99713.00
2019-01-04T20:34:57.843Z,99703.00
2019-01-04T20:37:42.022Z,99717.00
2019-01-04T20:40:28.585Z,99707.00
2019-01-04T20:43:19.515Z,99709.00
2019-01-04T20:46:06.143Z,99708.00
2019-01-04T20:48:52.943Z,99709.00
2019-01-04T20:51:47.875Z,99705.00
2019-01-04T20:54:29.899Z,99709.00
2019-01-04T20:57:16.560Z,99710.00
2019-01-04T21:00:16.722Z,99708.00
2019-01-04T21:03:11.206Z,99715.00
2019-01-04T21:05:59.295Z,99717.00
2019-01-04T21:08:45.662Z,99719.00
2019-01-04T21:11:38.832Z,99719.00
2019-01-04T21:14:25.280Z,99709.00
2019-01-04T21:17:11.941Z,99716.00
2019-01-04T21:20:08.955Z,99705.00
2019-01-04T21:23:09.243Z,99681.00
2019-01-04T21:26:03.238Z,99709.00
2019-01-04T21:28:51.074Z,99705.00
2019-01-04T21:31:41.902Z,99706.00
2019-01-04T21:34:28.439Z,99692.00
2019-01-04T21:37:10.623Z,99705.00
2019-01-04T21:39:57.428Z,99707.00
2019-01-04T21:42:43.759Z,99709.00
2019-01-04T21:45:30.279Z,99702.00
2019-01-04T21:48:18.354Z,99704.00
2019-01-04T21:51:12.894Z,99693.00
2019-01-04T21:54:04.294Z,99695.00
2019-01-04T21:56:50.715Z,99688.00
2019-01-04T21:59:42.083Z,99696.00
2019-01-04T22:02:32.889Z,99690.00
2019-01-04T22:05:19.544Z,99692.00
2019-01-04T22:10:41.617Z,99684.00
2019-01-04T22:13:25.429Z,99682.00
2019-01-04T22:16:06.764Z,99680.00
2019-01-04T22:18:57.615Z,99684.00
2019-01-04T22:21:50.472Z,99677.00
2019-01-04T22:24:47.166Z,99684.00
2019-01-04T22:27:43.406Z,99681.00
2019-01-04T22:30:34.172Z,99669.00
2019-01-04T22:33:37.025Z,99666.00
2019-01-04T22:36:16.745Z,99664.00
2019-01-04T22:39:03.126Z,99682.00
2019-01-04T22:41:50.354Z,99650.00
2019-01-04T22:44:31.970Z,99654.00
2019-01-04T22:47:19.872Z,99650.00
2019-01-04T22:50:07.864Z,99651.00
2019-01-04T22:53:06.901Z,99647.00
2019-01-04T22:55:53.385Z,99647.00
2019-01-04T22:58:40.894Z,99648.00
2019-01-04T23:01:27.595Z,99647.00
2019-01-04T23:04:15.515Z,99653.00
2019-01-04T23:07:06.375Z,99651.00
2019-01-04T23:09:59.819Z,99649.00
2019-01-04T23:12:46.384Z,99645.00
2019-01-04T23:15:33.133Z,99657.00
2019-01-04T23:18:21.133Z,99645.00
2019-01-04T23:21:10.623Z,99645.00
2019-01-04T23:24:07.410Z,99641.00
2019-01-04T23:26:51.518Z,99647.00
2019-01-04T23:29:48.498Z,99646.00
2019-01-04T23:32:34.826Z,99632.00
2019-01-04T23:35:21.599Z,99647.00
2019-01-04T23:38:03.306Z,99641.00
2019-01-04T23:40:50.084Z,99635.00
2019-01-04T23:43:50.215Z,99628.00
2019-01-04T23:46:44.010Z,99638.00
2019-01-04T23:49:28.402Z,99633.00
2019-01-04T23:52:16.400Z,99635.00
2019-01-04T23:55:02.820Z,99622.00
2019-01-04T23:57:49.370Z,99635.00
